Time,TemperatureF,DewpointF,PressureIn,WindDirection,WindDirectionDegrees,WindSpeedMPH,WindSpeedGustMPH,Humidity,HourlyPrecipIn,Conditions,Clouds,dailyrainin,SolarRadiationWatts/m^2,SoftwareType,DateUTC
2013-03-07 00:12:00,33.0,31.0,-100.00,South,190,0.0,4.0,91,0.00,,,0.13,0.000000,,2013-03-07 08:12:00,
2013-03-07 00:22:00,33.0,31.0,-100.00,South,190,0.0,4.0,91,0.00,,,0.13,0.000000,,2013-03-07 08:22:00,
2013-03-07 00:32:00,33.0,31.0,-100.00,South,190,0.0,4.0,91,0.00,,,0.13,0.000000,,2013-03-07 08:32:00,
2013-03-07 00:43:00,33.0,31.0,-100.00,South,190,0.0,4.0,91,0.00,,,0.13,0.000000,,2013-03-07 08:43:00,
2013-03-07 01:12:00,33.0,31.0,-100.00,WSW,257,0.0,3.0,91,0.00,,,0.13,0.000000,,2013-03-07 09:12:00,
2013-03-07 01:22:00,33.0,31.0,-100.00,WSW,257,0.0,3.0,91,0.00,,,0.13,0.000000,,2013-03-07 09:22:00,
2013-03-07 01:32:00,33.0,31.0,-100.00,WSW,257,0.0,3.0,91,0.00,,,0.13,0.000000,,2013-03-07 09:32:00,
2013-03-07 01:42:00,33.0,31.0,-100.00,WSW,257,0.0,3.0,91,0.00,,,0.13,0.000000,,2013-03-07 09:42:00,
2013-03-07 02:12:00,32.0,29.0,-100.00,SW,235,3.0,5.0,90,0.00,,,0.13,0.000000,,2013-03-07 10:12:00,
2013-03-07 02:22:00,32.0,29.0,-100.00,SW,235,3.0,5.0,90,0.00,,,0.13,0.000000,,2013-03-07 10:22:00,
2013-03-07 02:32:00,32.0,29.0,-100.00,SW,235,3.0,5.0,90,0.00,,,0.13,0.000000,,2013-03-07 10:32:00,
2013-03-07 02:42:00,32.0,29.0,-100.00,SW,235,3.0,5.0,90,0.00,,,0.13,0.000000,,2013-03-07 10:42:00,
2013-03-07 03:11:00,32.0,26.0,-100.00,WSW,242,3.0,5.0,78,0.00,,,0.13,0.000000,,2013-03-07 11:11:00,
2013-03-07 03:22:00,32.0,26.0,-100.00,WSW,242,3.0,5.0,78,0.00,,,0.13,0.000000,,2013-03-07 11:22:00,
2013-03-07 03:32:00,32.0,26.0,-100.00,WSW,242,3.0,5.0,78,0.00,,,0.13,0.000000,,2013-03-07 11:32:00,
2013-03-07 03:42:00,32.0,26.0,-100.00,WSW,242,3.0,5.0,78,0.00,,,0.13,0.000000,,2013-03-07 11:42:00,
2013-03-07 04:12:00,33.0,31.0,-100.00,South,188,0.0,4.0,92,0.00,,,0.13,0.000000,,2013-03-07 12:12:00,
2013-03-07 04:22:00,33.0,31.0,-100.00,South,188,0.0,4.0,92,0.00,,,0.13,0.000000,,2013-03-07 12:22:00,
2013-03-07 04:32:00,33.0,31.0,-100.00,South,188,0.0,4.0,92,0.00,,,0.13,0.000000,,2013-03-07 12:32:00,
2013-03-07 04:42:00,33.0,31.0,-100.00,South,188,0.0,4.0,92,0.00,,,0.13,0.000000,,2013-03-07 12:42:00,
2013-03-07 05:12:00,33.0,30.0,-100.00,South,185,0.0,4.0,90,0.00,,,0.13,0.000000,,2013-03-07 13:12:00,
2013-03-07 05:22:00,33.0,30.0,-100.00,South,185,0.0,4.0,90,0.00,,,0.13,0.000000,,2013-03-07 13:22:00,
2013-03-07 05:32:00,33.0,30.0,-100.00,South,185,0.0,4.0,90,0.00,,,0.13,0.000000,,2013-03-07 13:32:00,
2013-03-07 05:42:00,33.0,30.0,-100.00,South,185,0.0,4.0,90,0.00,,,0.13,0.000000,,2013-03-07 13:42:00,
2013-03-07 06:12:00,33.0,31.0,-100.00,South,177,0.0,3.0,91,0.00,,,0.13,0.000000,,2013-03-07 14:12:00,
2013-03-07 06:22:00,33.0,31.0,-100.00,South,177,0.0,3.0,91,0.00,,,0.13,0.000000,,2013-03-07 14:22:00,
2013-03-07 06:32:00,33.0,31.0,-100.00,South,177,0.0,3.0,91,0.00,,,0.13,0.000000,,2013-03-07 14:32:00,
2013-03-07 06:42:00,33.0,31.0,-100.00,South,177,0.0,3.0,91,0.00,,,0.13,0.000000,,2013-03-07 14:42:00,
2013-03-07 07:12:00,32.0,28.0,-100.00,South,180,0.0,4.0,84,0.00,,,0.13,0.000000,,2013-03-07 15:12:00,
2013-03-07 07:22:00,32.0,28.0,-100.00,South,180,0.0,4.0,84,0.00,,,0.13,0.000000,,2013-03-07 15:22:00,
2013-03-07 07:32:00,32.0,28.0,-100.00,South,180,0.0,4.0,84,0.00,,,0.13,0.000000,,2013-03-07 15:32:00,
2013-03-07 07:42:00,32.0,28.0,-100.00,South,180,0.0,4.0,84,0.00,,,0.13,0.000000,,2013-03-07 15:42:00,
2013-03-07 08:12:00,33.0,28.0,-100.00,SSW,199,0.0,4.0,82,0.00,,,0.13,0.000000,,2013-03-07 16:12:00,
2013-03-07 08:22:00,33.0,28.0,-100.00,SSW,199,0.0,4.0,82,0.00,,,0.13,0.000000,,2013-03-07 16:22:00,
2013-03-07 08:42:00,33.0,28.0,-100.00,SSW,199,0.0,4.0,82,0.00,,,0.13,0.000000,,2013-03-07 16:42:00,
2013-03-07 09:12:00,37.0,29.0,-100.00,WSW,248,2.0,4.0,74,0.03,,,0.16,30.000000,,2013-03-07 17:12:00,
2013-03-07 09:22:00,37.0,29.0,-100.00,WSW,248,2.0,4.0,74,0.03,,,0.16,30.000000,,2013-03-07 17:22:00,
2013-03-07 09:32:00,37.0,29.0,-100.00,WSW,248,2.0,4.0,74,0.03,,,0.16,30.000000,,2013-03-07 17:32:00,
2013-03-07 09:42:00,37.0,29.0,-100.00,WSW,248,2.0,4.0,74,0.03,,,0.16,30.000000,,2013-03-07 17:42:00,
2013-03-07 10:11:00,44.0,35.0,-100.00,SSW,207,0.0,5.0,71,0.11,,,0.27,229.000000,,2013-03-07 18:11:00,
2013-03-07 10:21:00,44.0,35.0,-100.00,SSW,207,0.0,5.0,71,0.11,,,0.27,229.000000,,2013-03-07 18:21:00,
2013-03-07 10:41:00,44.0,35.0,-100.00,SSW,207,0.0,5.0,71,0.11,,,0.27,229.000000,,2013-03-07 18:41:00,
2013-03-07 11:12:00,46.0,36.0,-100.00,ESE,110,0.0,5.0,69,0.03,,,0.23,501.000000,,2013-03-07 19:12:00,
2013-03-07 11:22:00,46.0,36.0,-100.00,ESE,110,0.0,5.0,69,0.03,,,0.23,501.000000,,2013-03-07 19:22:00,
2013-03-07 11:42:00,46.0,36.0,-100.00,ESE,110,0.0,5.0,69,0.03,,,0.23,501.000000,,2013-03-07 19:42:00,
2013-03-07 12:13:00,46.0,36.0,-100.00,SSE,151,0.0,4.0,67,0.00,,,0.21,485.000000,,2013-03-07 20:13:00,
2013-03-07 12:22:00,46.0,36.0,-100.00,SSE,151,0.0,4.0,67,0.00,,,0.21,485.000000,,2013-03-07 20:22:00,
2013-03-07 12:32:00,46.0,36.0,-100.00,SSE,151,0.0,4.0,67,0.00,,,0.21,485.000000,,2013-03-07 20:32:00,
2013-03-07 12:42:00,46.0,36.0,-100.00,SSE,151,0.0,4.0,67,0.00,,,0.21,485.000000,,2013-03-07 20:42:00,
2013-03-07 13:12:00,45.0,37.0,-100.00,ENE,72,4.0,7.0,73,0.00,,,0.18,502.000000,,2013-03-07 21:12:00,
2013-03-07 13:22:00,45.0,37.0,-100.00,ENE,72,4.0,7.0,73,0.00,,,0.18,502.000000,,2013-03-07 21:22:00,
2013-03-07 13:32:00,45.0,37.0,-100.00,ENE,72,4.0,7.0,73,0.00,,,0.18,502.000000,,2013-03-07 21:32:00,
2013-03-07 13:42:00,45.0,37.0,-100.00,ENE,72,4.0,7.0,73,0.00,,,0.18,502.000000,,2013-03-07 21:42:00,
2013-03-07 14:11:00,42.0,38.0,-100.00,NE,55,7.0,10.0,85,0.00,,,0.17,460.000000,,2013-03-07 22:11:00,
2013-03-07 14:22:00,42.0,38.0,-100.00,NE,55,7.0,10.0,85,0.00,,,0.17,460.000000,,2013-03-07 22:22:00,
2013-03-07 14:32:00,42.0,38.0,-100.00,NE,55,7.0,10.0,85,0.00,,,0.17,460.000000,,2013-03-07 22:32:00,
2013-03-07 14:42:00,42.0,38.0,-100.00,NE,55,7.0,10.0,85,0.00,,,0.17,460.000000,,2013-03-07 22:42:00,
2013-03-07 15:12:00,41.0,36.0,-100.00,East,79,7.0,10.0,81,0.00,,,0.17,428.000000,,2013-03-07 23:12:00,
2013-03-07 15:22:00,41.0,36.0,-100.00,East,79,7.0,10.0,81,0.00,,,0.17,428.000000,,2013-03-07 23:22:00,
2013-03-07 15:32:00,41.0,36.0,-100.00,East,79,7.0,10.0,81,0.00,,,0.17,428.000000,,2013-03-07 23:32:00,
2013-03-07 15:42:00,41.0,36.0,-100.00,East,79,7.0,10.0,81,0.00,,,0.17,428.000000,,2013-03-07 23:42:00,
2013-03-07 16:12:00,40.0,36.0,-100.00,ESE,105,4.0,9.0,84,0.00,,,0.17,82.000000,,2013-03-08 00:12:00,
2013-03-07 16:22:00,40.0,36.0,-100.00,ESE,105,4.0,9.0,84,0.00,,,0.17,82.000000,,2013-03-08 00:22:00,
2013-03-07 16:33:00,40.0,36.0,-100.00,ESE,105,4.0,9.0,84,0.00,,,0.17,82.000000,,2013-03-08 00:33:00,
2013-03-07 16:42:00,40.0,36.0,-100.00,ESE,105,4.0,9.0,84,0.00,,,0.17,82.000000,,2013-03-08 00:42:00,
2013-03-07 17:11:00,39.0,35.0,-100.00,NE,56,4.0,8.0,87,0.00,,,0.17,39.000000,,2013-03-08 01:11:00,
2013-03-07 17:21:00,39.0,35.0,-100.00,NE,56,4.0,8.0,87,0.00,,,0.17,39.000000,,2013-03-08 01:21:00,
2013-03-07 17:32:00,39.0,35.0,-100.00,NE,56,4.0,8.0,87,0.00,,,0.17,39.000000,,2013-03-08 01:32:00,
2013-03-07 17:42:00,39.0,35.0,-100.00,NE,56,4.0,8.0,87,0.00,,,0.17,39.000000,,2013-03-08 01:42:00,
2013-03-07 18:11:00,36.0,34.0,-100.00,NNE,13,5.0,7.0,93,0.00,,,0.17,0.000000,,2013-03-08 02:11:00,
2013-03-07 18:21:00,36.0,34.0,-100.00,NNE,13,5.0,7.0,93,0.00,,,0.17,0.000000,,2013-03-08 02:21:00,
2013-03-07 18:31:00,36.0,34.0,-100.00,NNE,13,5.0,7.0,93,0.00,,,0.17,0.000000,,2013-03-08 02:31:00,
2013-03-07 18:41:00,36.0,34.0,-100.00,NNE,13,5.0,7.0,93,0.00,,,0.17,0.000000,,2013-03-08 02:41:00,
2013-03-07 19:11:00,33.0,31.0,-100.00,North,4,5.0,8.0,94,0.00,,,0.17,0.000000,,2013-03-08 03:11:00,
2013-03-07 19:22:00,33.0,31.0,-100.00,North,4,5.0,8.0,94,0.00,,,0.17,0.000000,,2013-03-08 03:22:00,
2013-03-07 19:32:00,33.0,31.0,-100.00,North,4,5.0,8.0,94,0.00,,,0.17,0.000000,,2013-03-08 03:32:00,
2013-03-07 19:42:00,33.0,31.0,-100.00,North,4,5.0,8.0,94,0.00,,,0.17,0.000000,,2013-03-08 03:42:00,
2013-03-07 20:11:00,33.0,31.0,-100.00,NNE,19,5.0,8.0,93,0.00,,,0.17,0.000000,,2013-03-08 04:11:00,
2013-03-07 20:21:00,33.0,31.0,-100.00,NNE,19,5.0,8.0,93,0.00,,,0.17,0.000000,,2013-03-08 04:21:00,
2013-03-07 20:31:00,33.0,31.0,-100.00,NNE,19,5.0,8.0,93,0.00,,,0.17,0.000000,,2013-03-08 04:31:00,
2013-03-07 20:42:00,33.0,31.0,-100.00,NNE,19,5.0,8.0,93,0.00,,,0.17,0.000000,,2013-03-08 04:42:00,
2013-03-07 21:12:00,32.0,30.0,-100.00,North,10,4.0,7.0,92,0.00,,,0.17,0.000000,,2013-03-08 05:12:00,
2013-03-07 21:22:00,32.0,30.0,-100.00,North,10,4.0,7.0,92,0.00,,,0.17,0.000000,,2013-03-08 05:22:00,
2013-03-07 21:32:00,32.0,30.0,-100.00,North,10,4.0,7.0,92,0.00,,,0.17,0.000000,,2013-03-08 05:32:00,
2013-03-07 21:42:00,32.0,30.0,-100.00,North,10,4.0,7.0,92,0.00,,,0.17,0.000000,,2013-03-08 05:42:00,
2013-03-07 22:11:00,31.0,29.0,-100.00,North,355,5.0,7.0,93,0.00,,,0.17,0.000000,,2013-03-08 06:11:00,
2013-03-07 22:21:00,31.0,29.0,-100.00,North,355,5.0,7.0,93,0.00,,,0.17,0.000000,,2013-03-08 06:21:00,
2013-03-07 22:32:00,31.0,29.0,-100.00,North,355,5.0,7.0,93,0.00,,,0.17,0.000000,,2013-03-08 06:32:00,
2013-03-07 22:42:00,31.0,29.0,-100.00,North,355,5.0,7.0,93,0.00,,,0.17,0.000000,,2013-03-08 06:42:00,
2013-03-07 23:11:00,32.0,30.0,-100.00,North,359,4.0,7.0,94,0.00,,,0.17,0.000000,,2013-03-08 07:11:00,
2013-03-07 23:21:00,32.0,30.0,-100.00,North,359,4.0,7.0,94,0.00,,,0.17,0.000000,,2013-03-08 07:21:00,
2013-03-07 23:31:00,32.0,30.0,-100.00,North,359,4.0,7.0,94,0.00,,,0.17,0.000000,,2013-03-08 07:31:00,
2013-03-07 23:41:00,32.0,30.0,-100.00,North,359,4.0,7.0,94,0.00,,,0.17,0.000000,,2013-03-08 07:41:00,